100LL.CA
Aviation Fuel Pricing for Canadians
Please upgrade your browser - Tested with IE9, FireFox, Chrome, Safari

Fuel Airports Other Help
Prices Economy Info List METAR/TAF Kneeboard Help

Enter a list of
Airport Idents:
Sort Method: As Entered    By Ident   

CYVR
METAR CYVR 230000Z 30010KT 30SM FEW045 24/16 A3012 RMK CF1 CF TR SLP201 DENSITY ALT 900FT
TAF CYVR 222339Z 2300/2406 28009KT P6SM FEW040 BECMG 2302/2304 27005KT FM230900 10006KT P6SM SKC BECMG 2315/2317 27010KT BECMG 2403/2405 VRB03KT RMK NXT FCST BY 230300Z
CYXX
METAR CYXX 230000Z 24008KT 30SM FEW040 30/14 A3011 RMK CU1 CU TR SLP198 DENSITY ALT 1700FT
TAF CYXX 222339Z 2300/2324 23012KT P6SM FEW040 BECMG 2303/2305 VRB03KT FM231800 24010KT P6SM SKC RMK NXT FCST BY 230600Z
KBLI
METAR KBLI 222353Z VRB05KT 10SM FEW100 27/12 A3012 RMK AO2 SLP205 T02720122 10278 20228 58016
TAF KBLI 222320Z 2300/2324 28006KT P6SM SKC FM230400 18004KT P6SM SKC FM231800 25007KT P6SM SKC


Please Send Updates!

Desktop Version ]  [ Mobile Version ]  [ Disclaimer ]